sensor_id;sensor_type;location;lat;lon;timestamp;P1;durP1;ratioP1;P2;durP2;ratioP2
11500;SDS011;5807;51.606;7.624;2022-12-11T00:02:02;34.03;;;18.37;;
11500;SDS011;5807;51.606;7.624;2022-12-11T00:04:29;34.33;;;19.67;;
11500;SDS011;5807;51.606;7.624;2022-12-11T00:06:56;35.50;;;16.93;;
11500;SDS011;5807;51.606;7.624;2022-12-11T00:09:23;38.53;;;20.53;;
11500;SDS011;5807;51.606;7.624;2022-12-11T00:11:51;31.60;;;19.30;;
11500;SDS011;5807;51.606;7.624;2022-12-11T00:14:19;41.80;;;21.13;;
11500;SDS011;5807;51.606;7.624;2022-12-11T00:16:46;37.87;;;19.77;;
11500;SDS011;5807;51.606;7.624;2022-12-11T00:19:13;41.77;;;19.33;;
11500;SDS011;5807;51.606;7.624;2022-12-11T00:21:40;40.93;;;21.67;;
11500;SDS011;5807;51.606;7.624;2022-12-11T00:24:07;42.57;;;20.57;;
11500;SDS011;5807;51.606;7.624;2022-12-11T00:26:33;38.00;;;19.00;;
11500;SDS011;5807;51.606;7.624;2022-12-11T00:29:02;44.87;;;21.77;;
11500;SDS011;5807;51.606;7.624;2022-12-11T00:31:29;42.10;;;22.07;;
11500;SDS011;5807;51.606;7.624;2022-12-11T00:33:56;43.70;;;23.10;;
11500;SDS011;5807;51.606;7.624;2022-12-11T00:36:23;43.20;;;19.83;;
11500;SDS011;5807;51.606;7.624;2022-12-11T00:38:52;39.17;;;20.17;;
11500;SDS011;5807;51.606;7.624;2022-12-11T00:41:19;42.43;;;20.43;;
11500;SDS011;5807;51.606;7.624;2022-12-11T00:43:46;33.87;;;18.83;;
11500;SDS011;5807;51.606;7.624;2022-12-11T00:46:14;38.07;;;19.30;;
11500;SDS011;5807;51.606;7.624;2022-12-11T00:48:41;42.80;;;20.50;;
11500;SDS011;5807;51.606;7.624;2022-12-11T00:51:08;37.97;;;19.73;;
11500;SDS011;5807;51.606;7.624;2022-12-11T00:53:35;38.50;;;18.40;;
11500;SDS011;5807;51.606;7.624;2022-12-11T00:56:07;32.00;;;17.57;;
11500;SDS011;5807;51.606;7.624;2022-12-11T00:58:35;36.07;;;17.50;;
11500;SDS011;5807;51.606;7.624;2022-12-11T01:01:05;30.20;;;16.97;;
11500;SDS011;5807;51.606;7.624;2022-12-11T01:03:35;34.77;;;16.53;;
11500;SDS011;5807;51.606;7.624;2022-12-11T01:06:02;32.87;;;16.90;;
11500;SDS011;5807;51.606;7.624;2022-12-11T01:08:30;39.47;;;19.37;;
11500;SDS011;5807;51.606;7.624;2022-12-11T01:11:00;36.93;;;18.07;;
11500;SDS011;5807;51.606;7.624;2022-12-11T01:13:27;33.30;;;16.83;;
11500;SDS011;5807;51.606;7.624;2022-12-11T01:15:54;44.80;;;19.63;;
11500;SDS011;5807;51.606;7.624;2022-12-11T01:18:20;39.83;;;20.23;;
11500;SDS011;5807;51.606;7.624;2022-12-11T01:20:49;38.47;;;18.33;;
11500;SDS011;5807;51.606;7.624;2022-12-11T01:23:16;43.77;;;18.60;;
11500;SDS011;5807;51.606;7.624;2022-12-11T01:25:43;41.40;;;19.83;;
11500;SDS011;5807;51.606;7.624;2022-12-11T01:28:10;44.53;;;19.07;;
11500;SDS011;5807;51.606;7.624;2022-12-11T01:30:37;43.93;;;20.47;;
11500;SDS011;5807;51.606;7.624;2022-12-11T01:33:07;36.23;;;18.80;;
11500;SDS011;5807;51.606;7.624;2022-12-11T01:35:34;40.17;;;18.23;;
11500;SDS011;5807;51.606;7.624;2022-12-11T01:38:02;40.43;;;18.23;;
11500;SDS011;5807;51.606;7.624;2022-12-11T01:40:29;39.93;;;19.17;;
11500;SDS011;5807;51.606;7.624;2022-12-11T01:42:56;35.53;;;18.10;;
11500;SDS011;5807;51.606;7.624;2022-12-11T01:45:30;36.23;;;16.40;;
11500;SDS011;5807;51.606;7.624;2022-12-11T01:48:07;33.37;;;17.20;;
11500;SDS011;5807;51.606;7.624;2022-12-11T01:50:37;38.50;;;16.20;;
11500;SDS011;5807;51.606;7.624;2022-12-11T01:53:09;38.50;;;15.03;;
11500;SDS011;5807;51.606;7.624;2022-12-11T01:55:41;35.70;;;16.37;;
11500;SDS011;5807;51.606;7.624;2022-12-11T01:58:09;40.70;;;17.00;;
11500;SDS011;5807;51.606;7.624;2022-12-11T02:00:37;34.87;;;15.50;;
11500;SDS011;5807;51.606;7.624;2022-12-11T02:03:04;30.53;;;16.80;;
11500;SDS011;5807;51.606;7.624;2022-12-11T02:05:31;38.97;;;17.23;;
11500;SDS011;5807;51.606;7.624;2022-12-11T02:07:58;40.00;;;19.17;;
11500;SDS011;5807;51.606;7.624;2022-12-11T02:10:30;36.43;;;17.67;;
11500;SDS011;5807;51.606;7.624;2022-12-11T02:13:08;35.37;;;16.53;;
11500;SDS011;5807;51.606;7.624;2022-12-11T02:15:41;42.33;;;18.93;;
11500;SDS011;5807;51.606;7.624;2022-12-11T02:18:15;45.87;;;18.60;;
11500;SDS011;5807;51.606;7.624;2022-12-11T02:20:50;41.20;;;19.30;;
11500;SDS011;5807;51.606;7.624;2022-12-11T02:23:29;38.57;;;18.70;;
11500;SDS011;5807;51.606;7.624;2022-12-11T02:26:09;39.37;;;18.43;;
11500;SDS011;5807;51.606;7.624;2022-12-11T02:28:48;34.87;;;17.83;;
11500;SDS011;5807;51.606;7.624;2022-12-11T02:31:19;36.17;;;18.67;;
11500;SDS011;5807;51.606;7.624;2022-12-11T02:33:52;36.77;;;18.50;;
11500;SDS011;5807;51.606;7.624;2022-12-11T02:36:30;38.07;;;17.77;;
11500;SDS011;5807;51.606;7.624;2022-12-11T02:39:01;46.07;;;20.40;;
11500;SDS011;5807;51.606;7.624;2022-12-11T02:41:29;37.83;;;19.23;;
11500;SDS011;5807;51.606;7.624;2022-12-11T02:44:00;33.67;;;18.60;;
11500;SDS011;5807;51.606;7.624;2022-12-11T02:46:29;36.13;;;17.53;;
11500;SDS011;5807;51.606;7.624;2022-12-11T02:48:57;38.77;;;19.27;;
11500;SDS011;5807;51.606;7.624;2022-12-11T02:51:25;45.03;;;20.27;;
11500;SDS011;5807;51.606;7.624;2022-12-11T02:53:55;41.63;;;19.63;;
11500;SDS011;5807;51.606;7.624;2022-12-11T02:56:24;44.30;;;21.83;;
11500;SDS011;5807;51.606;7.624;2022-12-11T02:58:56;48.57;;;20.30;;
11500;SDS011;5807;51.606;7.624;2022-12-11T03:01:26;47.87;;;20.93;;
11500;SDS011;5807;51.606;7.624;2022-12-11T03:03:53;41.00;;;20.57;;
11500;SDS011;5807;51.606;7.624;2022-12-11T03:06:29;41.50;;;19.70;;
11500;SDS011;5807;51.606;7.624;2022-12-11T03:08:58;40.27;;;18.47;;
11500;SDS011;5807;51.606;7.624;2022-12-11T03:11:25;46.93;;;20.13;;
11500;SDS011;5807;51.606;7.624;2022-12-11T03:13:52;49.90;;;20.57;;
11500;SDS011;5807;51.606;7.624;2022-12-11T03:16:22;44.23;;;20.00;;
11500;SDS011;5807;51.606;7.624;2022-12-11T03:18:57;50.37;;;21.23;;
11500;SDS011;5807;51.606;7.624;2022-12-11T03:21:37;49.73;;;22.43;;
11500;SDS011;5807;51.606;7.624;2022-12-11T03:24:09;55.43;;;23.93;;
11500;SDS011;5807;51.606;7.624;2022-12-11T03:26:41;54.40;;;22.67;;
11500;SDS011;5807;51.606;7.624;2022-12-11T03:29:12;58.20;;;23.77;;
11500;SDS011;5807;51.606;7.624;2022-12-11T03:31:47;51.07;;;23.37;;
11500;SDS011;5807;51.606;7.624;2022-12-11T03:34:19;65.77;;;24.93;;
11500;SDS011;5807;51.606;7.624;2022-12-11T03:36:50;53.60;;;20.87;;
11500;SDS011;5807;51.606;7.624;2022-12-11T03:39:20;53.03;;;22.53;;
11500;SDS011;5807;51.606;7.624;2022-12-11T03:41:50;64.20;;;24.33;;
11500;SDS011;5807;51.606;7.624;2022-12-11T03:44:19;59.57;;;23.77;;
11500;SDS011;5807;51.606;7.624;2022-12-11T03:46:48;50.97;;;21.80;;
11500;SDS011;5807;51.606;7.624;2022-12-11T03:49:18;59.67;;;22.90;;
11500;SDS011;5807;51.606;7.624;2022-12-11T03:51:47;58.30;;;22.40;;
11500;SDS011;5807;51.606;7.624;2022-12-11T03:54:17;63.17;;;22.90;;
11500;SDS011;5807;51.606;7.624;2022-12-11T03:56:45;52.80;;;22.10;;
11500;SDS011;5807;51.606;7.624;2022-12-11T03:59:13;57.93;;;22.07;;
11500;SDS011;5807;51.606;7.624;2022-12-11T04:01:40;55.73;;;22.63;;
11500;SDS011;5807;51.606;7.624;2022-12-11T04:04:08;60.03;;;21.90;;
11500;SDS011;5807;51.606;7.624;2022-12-11T04:06:35;60.97;;;23.50;;
11500;SDS011;5807;51.606;7.624;2022-12-11T04:09:02;72.43;;;25.20;;
11500;SDS011;5807;51.606;7.624;2022-12-11T04:11:29;58.90;;;23.20;;
11500;SDS011;5807;51.606;7.624;2022-12-11T04:14:02;54.73;;;21.10;;
11500;SDS011;5807;51.606;7.624;2022-12-11T04:16:47;67.47;;;24.20;;
11500;SDS011;5807;51.606;7.624;2022-12-11T04:19:15;68.70;;;24.37;;
11500;SDS011;5807;51.606;7.624;2022-12-11T04:22:01;68.27;;;24.97;;
11500;SDS011;5807;51.606;7.624;2022-12-11T04:24:53;74.87;;;23.53;;
11500;SDS011;5807;51.606;7.624;2022-12-11T04:27:20;61.37;;;25.27;;
11500;SDS011;5807;51.606;7.624;2022-12-11T04:30:10;58.53;;;22.27;;
11500;SDS011;5807;51.606;7.624;2022-12-11T04:32:39;72.50;;;25.20;;
11500;SDS011;5807;51.606;7.624;2022-12-11T04:35:08;66.87;;;25.00;;
11500;SDS011;5807;51.606;7.624;2022-12-11T04:37:37;62.23;;;21.50;;
11500;SDS011;5807;51.606;7.624;2022-12-11T04:40:06;69.83;;;24.93;;
11500;SDS011;5807;51.606;7.624;2022-12-11T04:42:35;66.50;;;25.67;;
11500;SDS011;5807;51.606;7.624;2022-12-11T04:45:03;71.17;;;26.83;;
11500;SDS011;5807;51.606;7.624;2022-12-11T04:47:31;71.00;;;24.37;;
11500;SDS011;5807;51.606;7.624;2022-12-11T04:49:59;72.03;;;25.07;;
11500;SDS011;5807;51.606;7.624;2022-12-11T04:52:27;67.77;;;25.80;;
11500;SDS011;5807;51.606;7.624;2022-12-11T04:54:54;75.60;;;25.47;;
11500;SDS011;5807;51.606;7.624;2022-12-11T04:57:21;72.63;;;26.73;;
11500;SDS011;5807;51.606;7.624;2022-12-11T04:59:48;71.53;;;24.37;;
11500;SDS011;5807;51.606;7.624;2022-12-11T05:02:15;74.83;;;26.43;;
11500;SDS011;5807;51.606;7.624;2022-12-11T05:04:42;66.70;;;25.53;;
11500;SDS011;5807;51.606;7.624;2022-12-11T05:07:09;76.63;;;26.63;;
11500;SDS011;5807;51.606;7.624;2022-12-11T05:09:37;75.33;;;24.47;;
11500;SDS011;5807;51.606;7.624;2022-12-11T05:12:04;64.37;;;26.10;;
11500;SDS011;5807;51.606;7.624;2022-12-11T05:14:31;71.07;;;25.40;;
11500;SDS011;5807;51.606;7.624;2022-12-11T05:16:58;69.40;;;25.77;;
11500;SDS011;5807;51.606;7.624;2022-12-11T05:19:25;70.37;;;25.60;;
11500;SDS011;5807;51.606;7.624;2022-12-11T05:21:52;74.97;;;24.33;;
11500;SDS011;5807;51.606;7.624;2022-12-11T05:24:19;80.30;;;27.20;;
11500;SDS011;5807;51.606;7.624;2022-12-11T05:26:47;73.73;;;24.97;;
11500;SDS011;5807;51.606;7.624;2022-12-11T05:29:14;67.07;;;22.53;;
11500;SDS011;5807;51.606;7.624;2022-12-11T05:31:41;66.90;;;25.13;;
11500;SDS011;5807;51.606;7.624;2022-12-11T05:34:08;73.37;;;24.73;;
11500;SDS011;5807;51.606;7.624;2022-12-11T05:36:34;63.87;;;25.87;;
11500;SDS011;5807;51.606;7.624;2022-12-11T05:39:02;75.23;;;25.20;;
11500;SDS011;5807;51.606;7.624;2022-12-11T05:41:30;65.57;;;24.63;;
11500;SDS011;5807;51.606;7.624;2022-12-11T05:44:05;64.90;;;24.63;;
11500;SDS011;5807;51.606;7.624;2022-12-11T05:46:32;65.00;;;24.23;;
11500;SDS011;5807;51.606;7.624;2022-12-11T05:49:00;66.70;;;23.60;;
11500;SDS011;5807;51.606;7.624;2022-12-11T05:51:27;64.77;;;25.73;;
11500;SDS011;5807;51.606;7.624;2022-12-11T05:53:55;63.53;;;24.97;;
11500;SDS011;5807;51.606;7.624;2022-12-11T05:56:23;63.57;;;26.20;;
11500;SDS011;5807;51.606;7.624;2022-12-11T05:58:52;70.97;;;26.63;;
11500;SDS011;5807;51.606;7.624;2022-12-11T06:01:21;70.07;;;27.10;;
11500;SDS011;5807;51.606;7.624;2022-12-11T06:03:50;65.80;;;25.17;;
11500;SDS011;5807;51.606;7.624;2022-12-11T06:06:17;65.47;;;25.43;;
11500;SDS011;5807;51.606;7.624;2022-12-11T06:08:43;63.73;;;25.73;;
11500;SDS011;5807;51.606;7.624;2022-12-11T06:11:14;66.77;;;25.63;;
11500;SDS011;5807;51.606;7.624;2022-12-11T06:13:41;67.47;;;26.17;;
11500;SDS011;5807;51.606;7.624;2022-12-11T06:16:08;69.47;;;25.90;;
11500;SDS011;5807;51.606;7.624;2022-12-11T06:18:37;60.30;;;24.03;;
11500;SDS011;5807;51.606;7.624;2022-12-11T06:21:11;71.77;;;27.80;;
11500;SDS011;5807;51.606;7.624;2022-12-11T06:23:39;65.00;;;23.50;;
11500;SDS011;5807;51.606;7.624;2022-12-11T06:26:07;65.13;;;25.40;;
11500;SDS011;5807;51.606;7.624;2022-12-11T06:28:34;67.23;;;26.03;;
11500;SDS011;5807;51.606;7.624;2022-12-11T06:31:01;70.63;;;26.87;;
11500;SDS011;5807;51.606;7.624;2022-12-11T06:33:28;68.80;;;28.07;;
11500;SDS011;5807;51.606;7.624;2022-12-11T06:35:56;67.33;;;24.40;;
11500;SDS011;5807;51.606;7.624;2022-12-11T06:38:27;69.53;;;25.40;;
11500;SDS011;5807;51.606;7.624;2022-12-11T06:40:54;66.63;;;25.47;;
11500;SDS011;5807;51.606;7.624;2022-12-11T06:43:21;64.67;;;24.73;;
11500;SDS011;5807;51.606;7.624;2022-12-11T06:45:55;66.33;;;24.73;;
11500;SDS011;5807;51.606;7.624;2022-12-11T06:48:23;66.40;;;26.97;;
11500;SDS011;5807;51.606;7.624;2022-12-11T06:50:50;49.73;;;23.40;;
11500;SDS011;5807;51.606;7.624;2022-12-11T06:53:18;65.00;;;25.47;;
11500;SDS011;5807;51.606;7.624;2022-12-11T06:55:45;60.83;;;23.77;;
11500;SDS011;5807;51.606;7.624;2022-12-11T06:58:12;57.70;;;23.57;;
11500;SDS011;5807;51.606;7.624;2022-12-11T07:00:39;65.93;;;24.00;;
11500;SDS011;5807;51.606;7.624;2022-12-11T07:03:05;49.03;;;23.83;;
11500;SDS011;5807;51.606;7.624;2022-12-11T07:05:32;55.77;;;24.03;;
11500;SDS011;5807;51.606;7.624;2022-12-11T07:08:00;58.90;;;24.80;;
11500;SDS011;5807;51.606;7.624;2022-12-11T07:10:28;64.37;;;24.43;;
11500;SDS011;5807;51.606;7.624;2022-12-11T07:12:55;59.80;;;24.43;;
11500;SDS011;5807;51.606;7.624;2022-12-11T07:15:21;53.97;;;23.00;;
11500;SDS011;5807;51.606;7.624;2022-12-11T07:17:48;57.40;;;26.17;;
11500;SDS011;5807;51.606;7.624;2022-12-11T07:20:24;57.83;;;24.73;;
11500;SDS011;5807;51.606;7.624;2022-12-11T07:22:52;54.83;;;24.50;;
11500;SDS011;5807;51.606;7.624;2022-12-11T07:25:19;63.47;;;24.40;;
11500;SDS011;5807;51.606;7.624;2022-12-11T07:27:47;62.13;;;24.10;;
11500;SDS011;5807;51.606;7.624;2022-12-11T07:30:14;53.93;;;24.93;;
11500;SDS011;5807;51.606;7.624;2022-12-11T07:32:41;61.03;;;25.33;;
11500;SDS011;5807;51.606;7.624;2022-12-11T07:35:08;67.93;;;24.97;;
11500;SDS011;5807;51.606;7.624;2022-12-11T07:37:35;57.00;;;24.07;;
11500;SDS011;5807;51.606;7.624;2022-12-11T07:40:02;63.40;;;23.70;;
11500;SDS011;5807;51.606;7.624;2022-12-11T07:42:29;58.37;;;23.63;;
11500;SDS011;5807;51.606;7.624;2022-12-11T07:44:57;56.57;;;24.10;;
11500;SDS011;5807;51.606;7.624;2022-12-11T07:47:37;50.90;;;24.13;;
11500;SDS011;5807;51.606;7.624;2022-12-11T07:50:04;55.17;;;23.07;;
11500;SDS011;5807;51.606;7.624;2022-12-11T07:52:32;52.83;;;22.53;;
11500;SDS011;5807;51.606;7.624;2022-12-11T07:54:59;55.63;;;24.17;;
11500;SDS011;5807;51.606;7.624;2022-12-11T07:57:26;62.00;;;25.43;;
11500;SDS011;5807;51.606;7.624;2022-12-11T07:59:53;57.00;;;24.53;;
11500;SDS011;5807;51.606;7.624;2022-12-11T08:02:21;59.67;;;25.20;;
11500;SDS011;5807;51.606;7.624;2022-12-11T08:04:48;68.60;;;25.50;;
11500;SDS011;5807;51.606;7.624;2022-12-11T08:07:15;52.27;;;23.50;;
11500;SDS011;5807;51.606;7.624;2022-12-11T08:09:41;57.07;;;23.83;;
11500;SDS011;5807;51.606;7.624;2022-12-11T08:12:08;57.10;;;24.37;;
11500;SDS011;5807;51.606;7.624;2022-12-11T08:14:36;57.27;;;25.03;;
11500;SDS011;5807;51.606;7.624;2022-12-11T08:17:02;61.80;;;25.90;;
11500;SDS011;5807;51.606;7.624;2022-12-11T08:19:31;58.87;;;24.27;;
11500;SDS011;5807;51.606;7.624;2022-12-11T08:21:57;58.10;;;24.67;;
11500;SDS011;5807;51.606;7.624;2022-12-11T08:24:25;64.40;;;25.87;;
11500;SDS011;5807;51.606;7.624;2022-12-11T08:26:52;63.80;;;25.23;;
11500;SDS011;5807;51.606;7.624;2022-12-11T08:29:19;49.83;;;22.73;;
11500;SDS011;5807;51.606;7.624;2022-12-11T08:31:46;63.23;;;24.57;;
11500;SDS011;5807;51.606;7.624;2022-12-11T08:34:18;55.60;;;24.33;;
11500;SDS011;5807;51.606;7.624;2022-12-11T08:36:47;59.43;;;27.23;;
11500;SDS011;5807;51.606;7.624;2022-12-11T08:39:13;59.33;;;26.57;;
11500;SDS011;5807;51.606;7.624;2022-12-11T08:41:41;66.43;;;24.27;;
11500;SDS011;5807;51.606;7.624;2022-12-11T08:44:09;66.93;;;26.67;;
11500;SDS011;5807;51.606;7.624;2022-12-11T08:46:37;65.80;;;28.33;;
11500;SDS011;5807;51.606;7.624;2022-12-11T08:49:04;58.97;;;27.40;;
11500;SDS011;5807;51.606;7.624;2022-12-11T08:51:31;63.93;;;26.40;;
11500;SDS011;5807;51.606;7.624;2022-12-11T08:53:59;53.87;;;24.83;;
11500;SDS011;5807;51.606;7.624;2022-12-11T08:56:26;60.30;;;24.27;;
11500;SDS011;5807;51.606;7.624;2022-12-11T08:58:54;59.80;;;28.00;;
11500;SDS011;5807;51.606;7.624;2022-12-11T09:01:22;61.80;;;26.80;;
11500;SDS011;5807;51.606;7.624;2022-12-11T09:03:50;68.37;;;27.57;;
11500;SDS011;5807;51.606;7.624;2022-12-11T09:06:18;68.67;;;29.30;;
11500;SDS011;5807;51.606;7.624;2022-12-11T09:08:46;65.87;;;28.87;;
11500;SDS011;5807;51.606;7.624;2022-12-11T09:11:16;69.00;;;28.77;;
11500;SDS011;5807;51.606;7.624;2022-12-11T09:13:44;62.07;;;27.97;;
11500;SDS011;5807;51.606;7.624;2022-12-11T09:16:13;60.40;;;24.10;;
11500;SDS011;5807;51.606;7.624;2022-12-11T09:18:43;55.47;;;24.10;;
11500;SDS011;5807;51.606;7.624;2022-12-11T09:21:11;55.00;;;24.53;;
11500;SDS011;5807;51.606;7.624;2022-12-11T09:23:41;66.83;;;27.90;;
11500;SDS011;5807;51.606;7.624;2022-12-11T09:26:11;56.40;;;26.07;;
11500;SDS011;5807;51.606;7.624;2022-12-11T09:28:41;58.63;;;26.77;;
11500;SDS011;5807;51.606;7.624;2022-12-11T09:31:09;62.80;;;28.10;;
11500;SDS011;5807;51.606;7.624;2022-12-11T09:33:36;52.23;;;24.93;;
11500;SDS011;5807;51.606;7.624;2022-12-11T09:36:04;57.63;;;25.73;;
11500;SDS011;5807;51.606;7.624;2022-12-11T09:38:31;53.53;;;26.00;;
11500;SDS011;5807;51.606;7.624;2022-12-11T09:41:00;54.53;;;23.93;;
11500;SDS011;5807;51.606;7.624;2022-12-11T09:43:36;61.03;;;25.20;;
11500;SDS011;5807;51.606;7.624;2022-12-11T09:46:09;58.30;;;26.60;;
11500;SDS011;5807;51.606;7.624;2022-12-11T09:48:39;56.67;;;23.33;;
11500;SDS011;5807;51.606;7.624;2022-12-11T09:51:11;48.67;;;24.23;;
11500;SDS011;5807;51.606;7.624;2022-12-11T09:53:43;51.50;;;24.23;;
11500;SDS011;5807;51.606;7.624;2022-12-11T09:56:13;46.30;;;23.90;;
11500;SDS011;5807;51.606;7.624;2022-12-11T09:58:49;44.50;;;24.43;;
11500;SDS011;5807;51.606;7.624;2022-12-11T10:01:30;42.57;;;21.47;;
11500;SDS011;5807;51.606;7.624;2022-12-11T10:04:17;39.43;;;20.80;;
11500;SDS011;5807;51.606;7.624;2022-12-11T10:06:57;28.33;;;17.17;;
11500;SDS011;5807;51.606;7.624;2022-12-11T10:09:30;32.70;;;17.17;;
11500;SDS011;5807;51.606;7.624;2022-12-11T10:12:16;38.37;;;18.10;;
11500;SDS011;5807;51.606;7.624;2022-12-11T10:14:54;31.07;;;15.37;;
11500;SDS011;5807;51.606;7.624;2022-12-11T10:17:40;30.30;;;18.13;;
11500;SDS011;5807;51.606;7.624;2022-12-11T10:20:14;28.97;;;16.07;;
11500;SDS011;5807;51.606;7.624;2022-12-11T10:22:45;28.37;;;17.80;;
11500;SDS011;5807;51.606;7.624;2022-12-11T10:25:15;30.50;;;17.70;;
11500;SDS011;5807;51.606;7.624;2022-12-11T10:27:45;30.80;;;15.43;;
11500;SDS011;5807;51.606;7.624;2022-12-11T10:30:13;32.23;;;17.27;;
11500;SDS011;5807;51.606;7.624;2022-12-11T10:32:47;37.50;;;17.90;;
11500;SDS011;5807;51.606;7.624;2022-12-11T10:35:18;24.43;;;14.93;;
11500;SDS011;5807;51.606;7.624;2022-12-11T10:37:55;29.63;;;16.53;;
11500;SDS011;5807;51.606;7.624;2022-12-11T10:40:40;28.57;;;16.43;;
11500;SDS011;5807;51.606;7.624;2022-12-11T10:43:09;28.67;;;15.70;;
11500;SDS011;5807;51.606;7.624;2022-12-11T10:45:36;24.77;;;17.23;;
11500;SDS011;5807;51.606;7.624;2022-12-11T10:48:05;28.90;;;16.50;;
11500;SDS011;5807;51.606;7.624;2022-12-11T10:50:36;28.17;;;16.40;;
11500;SDS011;5807;51.606;7.624;2022-12-11T10:53:03;29.33;;;15.63;;
11500;SDS011;5807;51.606;7.624;2022-12-11T10:55:33;27.97;;;17.53;;
11500;SDS011;5807;51.606;7.624;2022-12-11T10:58:11;29.77;;;16.87;;
11500;SDS011;5807;51.606;7.624;2022-12-11T11:00:41;26.00;;;14.80;;
11500;SDS011;5807;51.606;7.624;2022-12-11T11:03:19;22.57;;;14.40;;
11500;SDS011;5807;51.606;7.624;2022-12-11T11:05:48;22.30;;;15.43;;
11500;SDS011;5807;51.606;7.624;2022-12-11T11:08:27;22.63;;;13.67;;
11500;SDS011;5807;51.606;7.624;2022-12-11T11:11:02;20.70;;;13.47;;
11500;SDS011;5807;51.606;7.624;2022-12-11T11:13:29;25.37;;;14.67;;
11500;SDS011;5807;51.606;7.624;2022-12-11T11:15:57;27.43;;;15.13;;
11500;SDS011;5807;51.606;7.624;2022-12-11T11:18:27;23.17;;;14.30;;
11500;SDS011;5807;51.606;7.624;2022-12-11T11:20:55;29.03;;;17.00;;
11500;SDS011;5807;51.606;7.624;2022-12-11T11:23:22;17.83;;;11.63;;
11500;SDS011;5807;51.606;7.624;2022-12-11T11:25:51;18.63;;;12.17;;
11500;SDS011;5807;51.606;7.624;2022-12-11T11:28:20;18.23;;;11.20;;
11500;SDS011;5807;51.606;7.624;2022-12-11T11:30:55;17.67;;;11.10;;
11500;SDS011;5807;51.606;7.624;2022-12-11T11:33:26;16.57;;;10.47;;
11500;SDS011;5807;51.606;7.624;2022-12-11T11:35:56;17.87;;;11.37;;
11500;SDS011;5807;51.606;7.624;2022-12-11T11:38:27;21.60;;;11.73;;
11500;SDS011;5807;51.606;7.624;2022-12-11T11:40:57;22.13;;;13.00;;
11500;SDS011;5807;51.606;7.624;2022-12-11T11:43:34;18.03;;;11.97;;
11500;SDS011;5807;51.606;7.624;2022-12-11T11:46:05;20.20;;;10.67;;
11500;SDS011;5807;51.606;7.624;2022-12-11T11:48:39;18.97;;;12.07;;
11500;SDS011;5807;51.606;7.624;2022-12-11T11:51:14;18.03;;;12.50;;
11500;SDS011;5807;51.606;7.624;2022-12-11T11:53:46;16.47;;;11.10;;
11500;SDS011;5807;51.606;7.624;2022-12-11T11:56:19;20.10;;;11.83;;
11500;SDS011;5807;51.606;7.624;2022-12-11T11:58:51;16.30;;;11.87;;
11500;SDS011;5807;51.606;7.624;2022-12-11T12:01:25;16.03;;;10.37;;
11500;SDS011;5807;51.606;7.624;2022-12-11T12:03:53;18.67;;;11.43;;
11500;SDS011;5807;51.606;7.624;2022-12-11T12:06:26;19.13;;;11.90;;
11500;SDS011;5807;51.606;7.624;2022-12-11T12:09:07;20.97;;;11.13;;
11500;SDS011;5807;51.606;7.624;2022-12-11T12:11:45;21.10;;;11.70;;
11500;SDS011;5807;51.606;7.624;2022-12-11T12:14:19;13.77;;;9.70;;
11500;SDS011;5807;51.606;7.624;2022-12-11T12:16:52;15.80;;;10.80;;
11500;SDS011;5807;51.606;7.624;2022-12-11T12:19:36;17.50;;;11.30;;
11500;SDS011;5807;51.606;7.624;2022-12-11T12:25:12;15.93;;;10.70;;
11500;SDS011;5807;51.606;7.624;2022-12-11T12:27:45;16.10;;;10.43;;
11500;SDS011;5807;51.606;7.624;2022-12-11T12:30:19;17.67;;;10.63;;
11500;SDS011;5807;51.606;7.624;2022-12-11T12:32:49;15.27;;;9.57;;
11500;SDS011;5807;51.606;7.624;2022-12-11T12:38:19;14.43;;;8.83;;
11500;SDS011;5807;51.606;7.624;2022-12-11T12:40:53;12.60;;;8.77;;
11500;SDS011;5807;51.606;7.624;2022-12-11T12:43:32;12.60;;;9.57;;
11500;SDS011;5807;51.606;7.624;2022-12-11T12:46:20;16.50;;;10.37;;
11500;SDS011;5807;51.606;7.624;2022-12-11T12:48:58;16.00;;;10.37;;
11500;SDS011;5807;51.606;7.624;2022-12-11T12:51:27;14.60;;;9.93;;
11500;SDS011;5807;51.606;7.624;2022-12-11T12:53:56;13.17;;;9.07;;
11500;SDS011;5807;51.606;7.624;2022-12-11T12:56:26;17.83;;;10.70;;
11500;SDS011;5807;51.606;7.624;2022-12-11T12:58:57;17.03;;;10.37;;
11500;SDS011;5807;51.606;7.624;2022-12-11T13:01:25;13.37;;;9.10;;
11500;SDS011;5807;51.606;7.624;2022-12-11T13:03:54;14.13;;;10.57;;
11500;SDS011;5807;51.606;7.624;2022-12-11T13:06:29;18.07;;;10.07;;
11500;SDS011;5807;51.606;7.624;2022-12-11T13:09:09;14.60;;;10.30;;
11500;SDS011;5807;51.606;7.624;2022-12-11T13:11:40;14.53;;;10.50;;
11500;SDS011;5807;51.606;7.624;2022-12-11T13:14:20;14.97;;;9.87;;
11500;SDS011;5807;51.606;7.624;2022-12-11T13:16:52;15.20;;;9.50;;
11500;SDS011;5807;51.606;7.624;2022-12-11T13:19:32;13.20;;;9.37;;
11500;SDS011;5807;51.606;7.624;2022-12-11T13:22:01;15.67;;;10.10;;
11500;SDS011;5807;51.606;7.624;2022-12-11T13:24:31;13.73;;;10.47;;
11500;SDS011;5807;51.606;7.624;2022-12-11T13:27:07;20.63;;;9.97;;
11500;SDS011;5807;51.606;7.624;2022-12-11T13:29:36;17.43;;;11.13;;
11500;SDS011;5807;51.606;7.624;2022-12-11T13:32:19;13.73;;;8.50;;
11500;SDS011;5807;51.606;7.624;2022-12-11T13:34:50;15.33;;;10.53;;
11500;SDS011;5807;51.606;7.624;2022-12-11T13:37:22;13.20;;;9.97;;
11500;SDS011;5807;51.606;7.624;2022-12-11T13:39:53;14.77;;;10.80;;
11500;SDS011;5807;51.606;7.624;2022-12-11T13:42:22;13.20;;;9.27;;
11500;SDS011;5807;51.606;7.624;2022-12-11T13:44:53;13.37;;;9.87;;
11500;SDS011;5807;51.606;7.624;2022-12-11T13:47:19;14.40;;;9.70;;
11500;SDS011;5807;51.606;7.624;2022-12-11T13:49:48;15.57;;;11.20;;
11500;SDS011;5807;51.606;7.624;2022-12-11T13:52:19;13.47;;;9.60;;
11500;SDS011;5807;51.606;7.624;2022-12-11T13:54:50;15.87;;;11.60;;
11500;SDS011;5807;51.606;7.624;2022-12-11T13:57:20;16.33;;;11.23;;
11500;SDS011;5807;51.606;7.624;2022-12-11T13:59:50;17.47;;;10.93;;
11500;SDS011;5807;51.606;7.624;2022-12-11T14:02:18;15.57;;;10.97;;
11500;SDS011;5807;51.606;7.624;2022-12-11T14:04:49;15.90;;;11.13;;
11500;SDS011;5807;51.606;7.624;2022-12-11T14:07:21;16.67;;;11.40;;
11500;SDS011;5807;51.606;7.624;2022-12-11T14:09:51;16.37;;;10.37;;
11500;SDS011;5807;51.606;7.624;2022-12-11T14:12:25;15.77;;;10.87;;
11500;SDS011;5807;51.606;7.624;2022-12-11T14:14:54;16.67;;;9.97;;
11500;SDS011;5807;51.606;7.624;2022-12-11T14:17:24;16.90;;;10.67;;
11500;SDS011;5807;51.606;7.624;2022-12-11T14:19:53;13.97;;;10.00;;
11500;SDS011;5807;51.606;7.624;2022-12-11T14:22:21;16.53;;;9.73;;
11500;SDS011;5807;51.606;7.624;2022-12-11T14:24:51;15.97;;;11.17;;
11500;SDS011;5807;51.606;7.624;2022-12-11T14:27:20;16.57;;;10.93;;
11500;SDS011;5807;51.606;7.624;2022-12-11T14:29:49;15.07;;;10.83;;
11500;SDS011;5807;51.606;7.624;2022-12-11T14:32:17;15.27;;;10.40;;
11500;SDS011;5807;51.606;7.624;2022-12-11T14:34:50;14.83;;;10.90;;
11500;SDS011;5807;51.606;7.624;2022-12-11T14:37:18;14.87;;;10.17;;
11500;SDS011;5807;51.606;7.624;2022-12-11T14:39:53;15.27;;;10.93;;
11500;SDS011;5807;51.606;7.624;2022-12-11T14:42:24;17.53;;;11.47;;
11500;SDS011;5807;51.606;7.624;2022-12-11T14:44:56;17.00;;;10.47;;
11500;SDS011;5807;51.606;7.624;2022-12-11T14:47:29;20.07;;;12.90;;
11500;SDS011;5807;51.606;7.624;2022-12-11T14:50:03;20.73;;;13.67;;
11500;SDS011;5807;51.606;7.624;2022-12-11T14:52:35;17.93;;;11.83;;
11500;SDS011;5807;51.606;7.624;2022-12-11T14:55:04;19.80;;;12.30;;
11500;SDS011;5807;51.606;7.624;2022-12-11T14:57:34;18.73;;;11.77;;
11500;SDS011;5807;51.606;7.624;2022-12-11T15:00:07;16.03;;;10.50;;